Terminal Aerodrome Forecast
Issued by NWS Billings, MT

Home | Current Version | Previous Version | Graphics & Text | Print | Product List | Glossary On
Versions: 1 2 3 4 5 6 7 8 9 10 11 12 13 14 15 16 17 18 19 20 21 22 23 24 25
000
FTUS45 KBYZ 210520
TAFMLS
TAF
KMLS 210520Z 2106/2206 16008KT P6SM SCT120 BKN200
     FM211100 17008KT P6SM SCT050 BKN120
     FM211500 19014KT P6SM VCSH BKN050
     FM212200 30020G30KT P6SM SCT050 BKN120=

USA.gov is the U.S. government's official web portal to all federal, state and local government web resources and services.